createdAt,value
2018-11-22T12:17:59.142Z,20.50
2018-11-22T12:20:27.480Z,20.00
2018-11-22T12:22:57.186Z,19.40
2018-11-22T12:25:26.699Z,19.83
2018-11-22T12:27:56.574Z,22.63
2018-11-22T12:30:26.372Z,20.53
2018-11-22T12:33:00.879Z,21.17
2018-11-22T12:35:34.320Z,19.80
2018-11-22T12:38:08.283Z,20.80
2018-11-22T12:40:37.500Z,19.80
2018-11-22T12:43:04.664Z,20.37
2018-11-22T12:45:33.114Z,20.37
2018-11-22T12:48:01.271Z,20.10
2018-11-22T12:50:29.424Z,18.57
2018-11-22T12:52:57.642Z,18.20
2018-11-22T12:55:25.796Z,18.53
2018-11-22T12:57:53.946Z,18.83
2018-11-22T13:00:22.094Z,19.13
2018-11-22T13:02:50.258Z,21.07
2018-11-22T13:05:19.397Z,18.93
2018-11-22T13:07:47.562Z,20.00
2018-11-22T13:10:17.063Z,18.63
2018-11-22T13:12:46.403Z,18.53
2018-11-22T13:15:15.885Z,18.03
2018-11-22T13:17:44.042Z,18.80
2018-11-22T13:20:15.302Z,19.00
2018-11-22T13:22:44.174Z,18.77
2018-11-22T13:25:15.426Z,17.83
2018-11-22T13:27:43.833Z,18.40
2018-11-22T13:30:28.727Z,18.37
2018-11-22T13:32:57.782Z,17.10
2018-11-22T13:35:26.127Z,17.87
2018-11-22T13:37:55.614Z,16.40
2018-11-22T13:40:24.281Z,18.97
2018-11-22T13:42:53.199Z,19.63
2018-11-22T13:45:23.886Z,18.63
2018-11-22T13:47:53.497Z,17.57
2018-11-22T13:50:29.730Z,16.33
2018-11-22T13:53:00.628Z,17.37
2018-11-22T13:55:28.834Z,17.43
2018-11-22T13:57:57.556Z,15.77
2018-11-22T14:00:27.259Z,18.03
2018-11-22T14:03:00.389Z,19.57
2018-11-22T14:05:29.032Z,22.43
2018-11-22T14:07:57.510Z,20.47
2018-11-22T14:10:25.919Z,19.00
2018-11-22T14:12:54.417Z,18.60
2018-11-22T14:15:24.207Z,22.33
2018-11-22T14:17:54.089Z,23.57
2018-11-22T14:20:23.867Z,20.67
2018-11-22T14:22:51.990Z,19.97
2018-11-22T14:25:20.122Z,23.87
2018-11-22T14:27:49.311Z,21.77
2018-11-22T14:30:18.722Z,21.50
2018-11-22T14:32:47.537Z,23.97
2018-11-22T14:35:16.748Z,22.87
2018-11-22T14:37:45.201Z,20.73
2018-11-22T14:40:15.179Z,23.00
2018-11-22T14:42:43.774Z,20.43
2018-11-22T14:45:13.139Z,21.50
2018-11-22T14:47:42.199Z,25.20
2018-11-22T14:50:15.032Z,22.90
2018-11-22T14:52:45.179Z,21.90
2018-11-22T14:55:13.347Z,21.83
2018-11-22T14:57:41.501Z,23.30
2018-11-22T15:00:11.954Z,24.10
2018-11-22T15:02:41.617Z,22.47
2018-11-22T15:05:10.654Z,23.10
2018-11-22T15:07:39.766Z,24.53
2018-11-22T15:10:09.464Z,22.40
2018-11-22T15:12:37.639Z,24.60
2018-11-22T15:15:08.432Z,25.67
2018-11-22T15:17:36.542Z,23.90
2018-11-22T15:20:05.817Z,24.40
2018-11-22T15:22:33.930Z,26.43
2018-11-22T15:25:02.106Z,23.63
2018-11-22T15:27:30.226Z,21.97
2018-11-22T15:29:58.391Z,22.37
2018-11-22T15:32:26.538Z,24.00
2018-11-22T15:34:54.687Z,24.17
2018-11-22T15:37:22.810Z,25.47
2018-11-22T15:39:50.965Z,27.70
2018-11-22T15:42:19.091Z,26.23
2018-11-22T15:44:47.320Z,25.97
2018-11-22T15:47:15.498Z,24.77
2018-11-22T15:49:43.655Z,27.27
2018-11-22T15:52:11.780Z,29.17
2018-11-22T15:54:45.038Z,25.73
2018-11-22T15:57:13.864Z,28.07
2018-11-22T15:59:41.292Z,27.73
2018-11-22T16:02:09.408Z,25.93
2018-11-22T16:04:37.539Z,26.17
2018-11-22T16:07:05.667Z,26.23
2018-11-22T16:09:33.790Z,28.17
2018-11-22T16:12:01.920Z,27.23
2018-11-22T16:14:30.057Z,27.20
2018-11-22T16:16:58.165Z,27.50
2018-11-22T16:19:26.295Z,28.60
2018-11-22T16:21:54.429Z,69.13
2018-11-22T16:24:22.571Z,69.80
2018-11-22T16:26:51.225Z,62.97
2018-11-22T16:29:19.718Z,43.80
2018-11-22T16:31:48.275Z,34.47
2018-11-22T16:34:16.418Z,30.13
2018-11-22T16:36:44.843Z,27.83
2018-11-22T16:39:13.123Z,29.93
2018-11-22T16:41:41.442Z,29.10
2018-11-22T16:44:09.866Z,25.73
2018-11-22T16:46:38.122Z,28.53
2018-11-22T16:49:06.250Z,26.40
2018-11-22T16:51:34.385Z,29.30
2018-11-22T16:54:02.510Z,27.97
2018-11-22T16:56:30.659Z,25.20
2018-11-22T16:58:58.819Z,28.47
2018-11-22T17:01:27.766Z,27.83
2018-11-22T17:03:55.102Z,27.17
2018-11-22T17:06:23.231Z,26.67
2018-11-22T17:08:51.378Z,28.90
2018-11-22T17:11:19.518Z,26.10
2018-11-22T17:13:47.772Z,26.67
2018-11-22T17:16:17.019Z,31.03
2018-11-22T17:18:44.165Z,34.43
2018-11-22T17:21:12.277Z,28.70
2018-11-22T17:23:40.419Z,32.03
2018-11-22T17:26:08.568Z,28.33
2018-11-22T17:28:36.694Z,30.60
2018-11-22T17:31:05.052Z,28.03
2018-11-22T17:33:33.195Z,27.10
2018-11-22T17:36:01.361Z,30.90
2018-11-22T17:38:29.495Z,28.50
2018-11-22T17:40:57.642Z,26.20
2018-11-22T17:43:25.789Z,29.93
2018-11-22T17:45:53.954Z,28.00
2018-11-22T17:48:22.122Z,30.13
2018-11-22T17:50:50.478Z,24.40
2018-11-22T17:53:18.659Z,24.37
2018-11-22T17:55:46.799Z,25.10
2018-11-22T17:58:15.408Z,27.60
2018-11-22T18:00:48.430Z,26.27
2018-11-22T18:03:16.800Z,28.60
2018-11-22T18:05:44.996Z,31.30
2018-11-22T18:08:13.374Z,28.50
2018-11-22T18:10:41.927Z,27.33
2018-11-22T18:13:10.227Z,28.63
2018-11-22T18:15:41.225Z,30.23
2018-11-22T18:18:09.532Z,27.33
2018-11-22T18:20:37.839Z,27.13
2018-11-22T18:23:11.221Z,31.20
2018-11-22T18:25:34.378Z,26.17
2018-11-22T18:28:02.658Z,27.63
2018-11-22T18:30:32.285Z,25.73
2018-11-22T18:33:02.107Z,27.77
2018-11-22T18:35:30.397Z,30.03
2018-11-22T18:37:58.759Z,26.10
2018-11-22T18:40:28.534Z,27.77
2018-11-22T18:42:58.051Z,27.03
2018-11-22T18:45:30.636Z,33.67
2018-11-22T18:47:59.393Z,33.20
2018-11-22T18:50:28.366Z,30.53
2018-11-22T18:52:56.566Z,29.80
2018-11-22T18:55:24.705Z,34.67
2018-11-22T18:57:53.025Z,33.77
2018-11-22T19:00:23.335Z,30.20
2018-11-22T19:02:52.131Z,30.30
2018-11-22T19:05:20.478Z,29.73
2018-11-22T19:07:50.173Z,34.57
2018-11-22T19:10:20.720Z,33.93
2018-11-22T19:12:50.003Z,34.20
2018-11-22T19:15:19.651Z,33.97
2018-11-22T19:17:47.950Z,33.07
2018-11-22T19:20:19.675Z,29.20
2018-11-22T19:22:48.634Z,29.57
2018-11-22T19:25:17.459Z,33.53
2018-11-22T19:27:46.089Z,33.27
2018-11-22T19:30:17.879Z,33.37
2018-11-22T19:32:47.226Z,29.80
2018-11-22T19:35:16.428Z,29.80
2018-11-22T19:37:45.063Z,32.20
2018-11-22T19:40:18.043Z,29.47
2018-11-22T19:42:47.758Z,26.53
2018-11-22T19:45:17.145Z,29.47
2018-11-22T19:47:45.463Z,32.40
2018-11-22T19:50:15.606Z,28.60
2018-11-22T19:52:44.947Z,29.30
2018-11-22T19:55:15.323Z,27.53
2018-11-22T19:57:44.979Z,29.17
2018-11-22T20:00:14.384Z,29.37
2018-11-22T20:02:43.374Z,28.53
2018-11-22T20:05:13.090Z,33.63
2018-11-22T20:07:42.247Z,29.87
2018-11-22T20:10:15.012Z,32.50
2018-11-22T20:12:43.698Z,30.73
2018-11-22T20:15:12.171Z,28.20
2018-11-22T20:17:40.322Z,29.43
2018-11-22T20:20:09.630Z,31.10
2018-11-22T20:22:37.863Z,33.17
2018-11-22T20:25:06.040Z,28.07
2018-11-22T20:27:34.206Z,33.93
2018-11-22T20:30:02.375Z,36.23
2018-11-22T20:32:30.814Z,42.67
2018-11-22T20:34:59.181Z,60.40
2018-11-22T20:37:27.401Z,56.40
2018-11-22T20:39:56.867Z,47.63
2018-11-22T20:42:25.370Z,40.63
2018-11-22T20:44:54.882Z,43.80
2018-11-22T20:47:25.623Z,41.70
2018-11-22T20:49:54.062Z,42.30
2018-11-22T20:52:22.299Z,38.57
2018-11-22T20:54:50.821Z,38.40
2018-11-22T20:57:19.072Z,39.70
2018-11-22T20:59:47.318Z,42.33
2018-11-22T21:02:16.155Z,35.80
2018-11-22T21:04:44.463Z,33.70
2018-11-22T21:07:12.672Z,44.60
2018-11-22T21:09:40.920Z,39.83
2018-11-22T21:12:09.158Z,38.00
2018-11-22T21:14:37.382Z,38.37
2018-11-22T21:17:05.786Z,32.63
2018-11-22T21:19:34.189Z,38.80
2018-11-22T21:22:02.383Z,35.47
2018-11-22T21:24:30.574Z,36.83
2018-11-22T21:26:58.782Z,34.10
2018-11-22T21:29:26.971Z,39.53
2018-11-22T21:31:55.180Z,37.33
2018-11-22T21:34:23.505Z,34.57
2018-11-22T21:36:51.732Z,34.93
2018-11-22T21:39:20.012Z,32.60
2018-11-22T21:41:48.263Z,31.60
2018-11-22T21:44:16.548Z,36.07
2018-11-22T21:46:44.686Z,34.30
2018-11-22T21:49:12.830Z,35.97
2018-11-22T21:51:41.071Z,31.73
2018-11-22T21:54:09.346Z,36.33
2018-11-22T21:56:37.542Z,36.40
2018-11-22T21:59:05.863Z,36.63
2018-11-22T22:01:34.071Z,35.00
2018-11-22T22:04:02.250Z,36.17
2018-11-22T22:06:30.450Z,38.50
2018-11-22T22:08:58.635Z,33.33
2018-11-22T22:11:26.813Z,37.23
2018-11-22T22:13:55.016Z,33.67
2018-11-22T22:16:23.175Z,33.37
2018-11-22T22:18:51.418Z,33.73
2018-11-22T22:21:19.588Z,36.70
2018-11-22T22:23:47.763Z,30.87
2018-11-22T22:26:15.918Z,37.10
2018-11-22T22:28:44.099Z,33.87
2018-11-22T22:31:12.309Z,35.73
2018-11-22T22:33:40.457Z,37.27
2018-11-22T22:36:19.131Z,37.73
2018-11-22T22:38:47.669Z,39.30
2018-11-22T22:41:15.823Z,36.60
2018-11-22T22:43:43.990Z,38.17
2018-11-22T22:46:12.183Z,40.90
2018-11-22T22:48:40.371Z,42.47
2018-11-22T22:51:08.541Z,39.50
2018-11-22T22:53:36.722Z,40.57
2018-11-22T22:56:04.958Z,38.90
2018-11-22T22:58:33.139Z,38.07
2018-11-22T23:01:01.914Z,36.77
2018-11-22T23:03:30.475Z,32.90
2018-11-22T23:05:58.823Z,33.80
2018-11-22T23:08:27.027Z,32.30
2018-11-22T23:10:55.191Z,33.67
2018-11-22T23:13:23.353Z,34.23
2018-11-22T23:15:51.511Z,34.60
2018-11-22T23:18:19.672Z,28.63
2018-11-22T23:20:47.825Z,35.27
2018-11-22T23:23:16.011Z,37.37
2018-11-22T23:25:44.175Z,29.97
2018-11-22T23:28:12.336Z,32.20
2018-11-22T23:30:40.500Z,34.37
2018-11-22T23:33:09.277Z,33.37
2018-11-22T23:35:37.423Z,33.20
2018-11-22T23:38:05.601Z,36.80
2018-11-22T23:40:34.554Z,36.03
2018-11-22T23:43:02.693Z,35.20
2018-11-22T23:45:32.101Z,30.07
2018-11-22T23:48:00.259Z,33.83
2018-11-22T23:50:30.884Z,38.77
2018-11-22T23:53:00.168Z,38.73
2018-11-22T23:55:28.339Z,37.60
2018-11-22T23:57:56.484Z,35.63
